createdAt,value
2018-06-13T00:02:22.918Z,94.50
2018-06-13T00:07:18.793Z,94.80
2018-06-13T00:09:46.970Z,94.90
2018-06-13T00:12:14.876Z,94.90
2018-06-13T00:14:42.776Z,94.80
2018-06-13T00:17:10.979Z,95.10
2018-06-13T00:19:39.025Z,95.00
2018-06-13T00:22:07.123Z,95.00
2018-06-13T00:24:35.090Z,95.20
2018-06-13T00:27:02.843Z,95.10
2018-06-13T00:34:28.900Z,94.80
2018-06-13T00:36:56.984Z,94.70
2018-06-13T00:39:24.931Z,94.70
2018-06-13T00:41:52.889Z,94.90
2018-06-13T00:44:20.788Z,94.90
2018-06-13T00:46:48.728Z,95.20
2018-06-13T00:49:17.031Z,95.40
2018-06-13T00:51:45.091Z,95.60
2018-06-13T00:54:13.367Z,95.90
2018-06-13T00:56:41.470Z,95.90
2018-06-13T00:59:09.388Z,95.90
2018-06-13T01:01:38.554Z,96.00
2018-06-13T01:04:06.523Z,96.00
2018-06-13T01:06:35.729Z,96.00
2018-06-13T01:09:05.468Z,96.00
2018-06-13T01:11:33.532Z,95.90
2018-06-13T01:14:01.819Z,96.00
2018-06-13T01:16:29.868Z,96.00
2018-06-13T01:18:57.945Z,95.90
2018-06-13T01:21:25.999Z,95.90
2018-06-13T01:23:54.091Z,95.80
2018-06-13T01:26:22.062Z,95.80
2018-06-13T01:28:50.077Z,95.80
2018-06-13T01:31:18.021Z,95.70
2018-06-13T01:33:50.006Z,95.50
2018-06-13T01:38:45.543Z,95.50
2018-06-13T01:41:13.429Z,95.30
2018-06-13T01:46:10.265Z,94.80
2018-06-13T01:48:38.273Z,94.70
2018-06-13T01:51:06.356Z,94.50
2018-06-13T01:53:34.129Z,94.20
2018-06-13T01:56:01.974Z,93.90
2018-06-13T01:58:29.987Z,93.70
2018-06-13T02:00:57.808Z,93.20
2018-06-13T02:03:25.592Z,93.20
2018-06-13T02:05:53.560Z,93.00
2018-06-13T02:08:21.314Z,92.90
2018-06-13T02:10:49.127Z,92.90
2018-06-13T02:13:16.964Z,92.80
2018-06-13T02:15:45.273Z,92.90
2018-06-13T02:18:13.113Z,92.80
2018-06-13T02:20:43.033Z,92.90
2018-06-13T02:23:10.900Z,93.20
2018-06-13T02:25:38.727Z,93.00
2018-06-13T02:28:06.614Z,93.20
2018-06-13T02:30:34.489Z,93.10
2018-06-13T02:33:02.303Z,93.10
2018-06-13T02:35:31.827Z,93.00
2018-06-13T02:37:59.626Z,93.10
2018-06-13T02:40:27.612Z,93.10
2018-06-13T02:42:55.715Z,93.20
2018-06-13T02:45:23.837Z,93.20
2018-06-13T02:47:52.258Z,93.20
2018-06-13T02:50:20.523Z,93.20
2018-06-13T02:52:49.003Z,93.50
2018-06-13T02:55:17.401Z,93.50
2018-06-13T02:57:45.753Z,93.60
2018-06-13T03:00:14.547Z,93.70
2018-06-13T03:02:42.936Z,93.90
2018-06-13T03:05:10.982Z,93.90
2018-06-13T03:07:39.073Z,94.00
2018-06-13T03:10:06.976Z,94.00
2018-06-13T03:12:34.980Z,94.10
2018-06-13T03:15:02.955Z,94.10
2018-06-13T03:17:31.125Z,94.00
2018-06-13T03:19:59.393Z,94.00
2018-06-13T03:22:27.349Z,93.90
2018-06-13T03:24:55.332Z,93.90
2018-06-13T03:27:23.372Z,93.70
2018-06-13T03:29:51.469Z,93.90
2018-06-13T03:32:20.757Z,93.80
2018-06-13T03:34:49.035Z,93.80
2018-06-13T03:37:17.098Z,93.70
2018-06-13T03:39:45.179Z,93.70
2018-06-13T03:42:13.173Z,93.60
2018-06-13T03:44:41.115Z,93.50
2018-06-13T03:47:08.957Z,93.50
2018-06-13T03:49:36.770Z,93.40
2018-06-13T03:52:04.608Z,93.30
2018-06-13T03:54:32.552Z,93.60
2018-06-13T03:57:00.440Z,93.70
2018-06-13T03:59:28.236Z,93.40
2018-06-13T04:01:56.177Z,93.30
2018-06-13T04:04:24.051Z,93.30
2018-06-13T04:06:51.856Z,93.30
2018-06-13T04:09:19.642Z,93.30
2018-06-13T04:11:47.408Z,93.30
2018-06-13T04:14:15.212Z,93.10
2018-06-13T04:16:43.167Z,93.00
2018-06-13T04:19:11.038Z,92.80
2018-06-13T04:21:38.766Z,92.80
2018-06-13T04:24:07.892Z,92.40
2018-06-13T04:26:36.467Z,91.90
2018-06-13T04:31:29.704Z,91.60
2018-06-13T04:36:30.659Z,91.10
2018-06-13T04:38:58.447Z,90.90
2018-06-13T04:41:26.625Z,90.80
2018-06-13T04:43:54.521Z,90.50
2018-06-13T04:46:22.371Z,90.50
2018-06-13T04:51:19.273Z,90.60
2018-06-13T04:53:47.035Z,90.60
2018-06-13T04:56:14.788Z,90.40
2018-06-13T04:58:44.380Z,90.20
2018-06-13T05:01:13.451Z,90.40
2018-06-13T05:03:41.203Z,90.50
2018-06-13T05:06:09.263Z,90.60
2018-06-13T05:08:37.370Z,91.00
2018-06-13T05:11:05.188Z,91.10
2018-06-13T05:13:32.969Z,91.20
2018-06-13T05:16:00.715Z,91.20
2018-06-13T05:18:28.516Z,91.10
2018-06-13T05:20:56.446Z,91.30
2018-06-13T05:23:24.225Z,91.50
2018-06-13T05:25:51.990Z,92.10
2018-06-13T05:28:19.785Z,92.60
2018-06-13T05:30:47.748Z,93.00
2018-06-13T05:33:15.238Z,93.20
2018-06-13T05:38:13.052Z,93.30
2018-06-13T05:40:41.301Z,93.40
2018-06-13T05:48:05.326Z,92.80
2018-06-13T05:50:33.207Z,92.40
2018-06-13T05:53:01.083Z,92.40
2018-06-13T05:55:28.966Z,92.60
2018-06-13T05:57:56.804Z,92.20
2018-06-13T06:00:25.031Z,92.10
2018-06-13T06:05:20.705Z,91.90
2018-06-13T06:07:48.608Z,91.80
2018-06-13T06:10:16.524Z,91.40
2018-06-13T06:12:44.582Z,91.60
2018-06-13T06:15:12.488Z,91.40
2018-06-13T06:17:40.735Z,91.10
2018-06-13T06:20:08.584Z,91.30
2018-06-13T06:22:36.678Z,90.80
2018-06-13T06:25:04.977Z,90.70
2018-06-13T06:27:34.060Z,90.70
2018-06-13T06:30:01.946Z,90.20
2018-06-13T06:32:29.974Z,90.60
2018-06-13T06:34:58.102Z,90.40
2018-06-13T06:37:25.747Z,89.50
2018-06-13T06:39:53.648Z,88.10
2018-06-13T06:42:21.664Z,84.70
2018-06-13T06:44:49.524Z,83.60
2018-06-13T06:47:17.293Z,80.80
2018-06-13T06:49:45.121Z,81.60
2018-06-13T06:54:40.779Z,76.70
2018-06-13T06:57:08.624Z,77.60
2018-06-13T06:59:36.402Z,75.10
2018-06-13T07:02:04.223Z,76.30
2018-06-13T07:04:31.985Z,77.90
2018-06-13T07:06:59.796Z,76.30
2018-06-13T07:09:28.849Z,74.80
2018-06-13T07:14:24.591Z,76.30
2018-06-13T07:16:52.421Z,73.90
2018-06-13T07:19:20.252Z,74.00
2018-06-13T07:21:48.017Z,74.40
2018-06-13T07:24:15.815Z,73.10
2018-06-13T07:26:43.635Z,73.50
2018-06-13T07:29:11.376Z,74.00
2018-06-13T07:39:05.497Z,77.60
2018-06-13T07:41:33.334Z,78.60
2018-06-13T07:44:01.186Z,78.30
2018-06-13T07:46:28.927Z,77.00
2018-06-13T07:48:58.468Z,77.00
2018-06-13T07:51:26.431Z,76.00
2018-06-13T07:53:54.322Z,74.10
2018-06-13T07:56:22.136Z,74.40
2018-06-13T07:58:51.073Z,75.40
2018-06-13T08:01:19.333Z,75.90
2018-06-13T08:03:47.218Z,76.80
2018-06-13T08:08:43.234Z,79.00
2018-06-13T08:11:11.207Z,80.00
2018-06-13T08:13:38.963Z,78.30
2018-06-13T08:16:06.931Z,77.70
2018-06-13T08:18:34.716Z,77.80
2018-06-13T08:21:02.505Z,76.40
2018-06-13T08:23:30.321Z,75.00
2018-06-13T08:25:58.144Z,76.00
2018-06-13T08:28:25.975Z,75.40
2018-06-13T08:30:53.758Z,76.50
2018-06-13T08:33:21.782Z,73.30
2018-06-13T08:35:49.565Z,72.30
2018-06-13T08:38:17.361Z,71.00
2018-06-13T08:40:45.173Z,69.00
2018-06-13T08:43:13.242Z,65.70
2018-06-13T08:45:41.098Z,65.60
2018-06-13T08:48:08.893Z,67.70
2018-06-13T08:53:09.072Z,61.60
2018-06-13T08:55:36.935Z,65.80
2018-06-13T08:58:05.270Z,64.60
2018-06-13T09:00:33.098Z,65.10
2018-06-13T09:03:01.001Z,62.60
2018-06-13T09:05:28.854Z,64.50
2018-06-13T09:07:56.722Z,62.90
2018-06-13T09:10:24.518Z,61.10
2018-06-13T09:12:52.337Z,59.70
2018-06-13T09:15:20.223Z,61.20
2018-06-13T09:17:47.980Z,60.20
2018-06-13T09:20:15.957Z,61.80
2018-06-13T09:22:45.260Z,59.80
2018-06-13T09:25:13.055Z,62.90
2018-06-13T09:27:41.025Z,63.00
2018-06-13T09:30:09.232Z,63.60
2018-06-13T09:32:37.092Z,63.50
2018-06-13T09:35:05.021Z,62.10
2018-06-13T09:37:32.884Z,60.40
2018-06-13T09:40:00.734Z,63.20
2018-06-13T09:44:56.607Z,62.20
2018-06-13T09:47:24.533Z,62.70
2018-06-13T09:49:52.346Z,59.50
2018-06-13T09:52:20.144Z,63.00
2018-06-13T09:54:47.960Z,60.10
2018-06-13T09:57:15.787Z,61.40
2018-06-13T09:59:49.083Z,59.10
2018-06-13T10:02:17.380Z,57.80
2018-06-13T10:04:46.287Z,58.40
2018-06-13T10:07:14.254Z,55.70
2018-06-13T10:09:42.032Z,58.00
2018-06-13T10:12:09.976Z,56.80
2018-06-13T10:14:37.814Z,56.70
2018-06-13T10:17:06.942Z,56.40
2018-06-13T10:19:34.741Z,56.50
2018-06-13T10:22:03.580Z,55.00
2018-06-13T10:24:31.459Z,55.50
2018-06-13T10:26:59.312Z,54.80
2018-06-13T10:29:27.086Z,57.60
2018-06-13T10:31:55.159Z,59.40
2018-06-13T10:34:23.060Z,60.20
2018-06-13T10:36:50.819Z,63.00
2018-06-13T10:39:18.759Z,62.40
2018-06-13T10:41:46.521Z,58.30
2018-06-13T10:44:14.285Z,58.00
2018-06-13T10:46:42.078Z,54.80
2018-06-13T10:49:10.186Z,54.20
2018-06-13T10:51:37.999Z,55.10
2018-06-13T10:54:05.776Z,53.50
2018-06-13T10:56:33.929Z,54.70
2018-06-13T10:59:01.910Z,55.70
2018-06-13T11:01:29.681Z,53.50
2018-06-13T11:03:57.612Z,54.30
2018-06-13T11:06:25.375Z,52.10
2018-06-13T11:08:54.197Z,54.00
2018-06-13T11:11:22.383Z,53.00
2018-06-13T11:13:50.427Z,51.60
2018-06-13T11:16:18.320Z,50.70
2018-06-13T11:18:46.352Z,52.40
2018-06-13T11:21:14.523Z,52.70
2018-06-13T11:23:43.727Z,53.50
2018-06-13T11:26:11.903Z,54.60
2018-06-13T11:28:39.961Z,55.20
2018-06-13T11:31:08.211Z,56.70
2018-06-13T11:33:36.671Z,54.20
2018-06-13T11:36:04.676Z,55.60
2018-06-13T11:38:32.693Z,56.80
2018-06-13T11:41:00.636Z,57.40
2018-06-13T11:43:29.048Z,57.30
2018-06-13T11:45:56.986Z,54.40
2018-06-13T11:48:25.081Z,53.80
2018-06-13T11:50:53.393Z,52.50
2018-06-13T11:53:21.324Z,52.40
2018-06-13T11:55:49.350Z,52.80
2018-06-13T11:58:17.614Z,53.60
2018-06-13T12:00:45.629Z,55.10
2018-06-13T12:03:14.174Z,55.00
2018-06-13T12:05:42.070Z,56.10
2018-06-13T12:08:10.511Z,57.70
2018-06-13T12:10:38.767Z,58.60
2018-06-13T12:13:06.681Z,57.50
2018-06-13T12:15:37.680Z,55.30
2018-06-13T12:18:05.546Z,54.90
2018-06-13T12:20:33.486Z,52.60
2018-06-13T12:23:02.822Z,51.80
2018-06-13T12:25:32.519Z,51.30
2018-06-13T12:28:00.276Z,53.50
2018-06-13T12:30:28.431Z,54.40
2018-06-13T12:32:56.227Z,54.40
2018-06-13T12:37:52.401Z,51.60
2018-06-13T12:40:20.347Z,53.70
2018-06-13T12:42:49.229Z,55.70
2018-06-13T12:45:17.130Z,56.00
2018-06-13T12:47:45.341Z,53.50
2018-06-13T12:50:13.320Z,50.90
2018-06-13T12:52:41.162Z,51.60
2018-06-13T12:55:09.272Z,52.90
2018-06-13T12:57:37.556Z,54.30
2018-06-13T13:00:06.771Z,51.80
2018-06-13T13:02:34.763Z,48.80
2018-06-13T13:05:03.072Z,47.80
2018-06-13T13:07:31.218Z,49.50
2018-06-13T13:09:59.286Z,48.90
2018-06-13T13:12:27.345Z,49.60
2018-06-13T13:14:55.385Z,50.50
2018-06-13T13:19:51.350Z,54.80
2018-06-13T13:22:19.429Z,55.10
2018-06-13T13:24:47.713Z,54.80
2018-06-13T13:27:15.821Z,51.20
2018-06-13T13:29:43.762Z,49.40
2018-06-13T13:32:12.109Z,48.10
2018-06-13T13:34:40.647Z,47.50
2018-06-13T13:37:08.649Z,50.00
2018-06-13T13:39:36.781Z,52.30
2018-06-13T13:42:05.000Z,54.60
2018-06-13T13:44:33.097Z,54.90
2018-06-13T13:47:01.385Z,56.60
2018-06-13T13:49:31.014Z,53.70
2018-06-13T13:51:59.908Z,52.60
2018-06-13T13:54:28.434Z,53.40
2018-06-13T13:57:05.273Z,52.10
2018-06-13T13:59:33.160Z,50.30
2018-06-13T14:02:01.351Z,49.80
2018-06-13T14:04:31.446Z,51.90
2018-06-13T14:06:59.257Z,50.50
2018-06-13T14:09:27.316Z,50.30
2018-06-13T14:11:55.097Z,48.80
2018-06-13T14:14:23.062Z,45.40
2018-06-13T14:16:50.822Z,46.90
2018-06-13T14:19:19.698Z,48.80
2018-06-13T14:21:47.933Z,48.70
2018-06-13T14:29:08.458Z,43.90
2018-06-13T14:31:38.222Z,45.50
2018-06-13T14:34:07.563Z,44.90
2018-06-13T14:36:37.373Z,43.70
2018-06-13T14:39:07.854Z,41.70
2018-06-13T14:41:36.006Z,42.80
2018-06-13T14:44:04.157Z,44.20
2018-06-13T14:46:34.631Z,44.30
2018-06-13T14:49:02.643Z,47.50
2018-06-13T14:51:30.864Z,49.50
2018-06-13T14:53:59.706Z,48.70
2018-06-13T14:56:29.548Z,46.50
2018-06-13T14:58:59.261Z,47.80
2018-06-13T15:01:27.159Z,47.30
2018-06-13T15:03:55.068Z,46.30
2018-06-13T15:06:23.946Z,47.20
2018-06-13T15:08:52.118Z,49.20
2018-06-13T15:11:20.016Z,51.20
2018-06-13T15:13:48.693Z,53.80
2018-06-13T15:16:16.711Z,54.80
2018-06-13T15:18:45.238Z,52.30
2018-06-13T15:21:13.398Z,52.10
2018-06-13T15:23:41.367Z,51.20
2018-06-13T15:26:09.239Z,48.10
2018-06-13T15:28:37.382Z,49.40
2018-06-13T15:31:05.306Z,49.00
2018-06-13T15:33:33.525Z,49.30
2018-06-13T15:36:01.312Z,48.30
2018-06-13T15:38:29.478Z,48.10
2018-06-13T15:40:57.521Z,48.60
2018-06-13T15:43:25.325Z,48.40
2018-06-13T15:45:53.137Z,48.90
2018-06-13T15:48:22.099Z,48.80
2018-06-13T15:50:50.033Z,48.50
2018-06-13T15:53:18.143Z,48.20
2018-06-13T15:55:47.169Z,47.90
2018-06-13T15:58:15.228Z,48.40
2018-06-13T16:03:12.184Z,47.10
2018-06-13T16:05:41.288Z,45.30
2018-06-13T16:08:09.440Z,45.40
2018-06-13T16:10:37.667Z,45.70
2018-06-13T16:13:05.944Z,45.90
2018-06-13T16:15:33.835Z,46.90
2018-06-13T16:18:01.749Z,48.80
2018-06-13T16:20:29.553Z,47.30
2018-06-13T16:22:57.352Z,47.80
2018-06-13T16:25:25.144Z,47.70
2018-06-13T16:27:53.110Z,48.10
2018-06-13T16:30:20.892Z,47.30
2018-06-13T16:32:48.718Z,47.30
2018-06-13T16:35:16.571Z,48.90
2018-06-13T16:37:44.516Z,48.20
2018-06-13T16:40:12.455Z,48.90
2018-06-13T16:42:40.515Z,48.30
2018-06-13T16:47:36.209Z,50.00
2018-06-13T16:50:14.594Z,50.60
2018-06-13T16:53:10.420Z,50.60
2018-06-13T16:58:14.029Z,50.60
2018-06-13T17:00:42.340Z,52.10
2018-06-13T17:03:10.538Z,52.80
2018-06-13T17:05:38.334Z,53.00
2018-06-13T17:08:06.433Z,53.90
2018-06-13T17:10:35.297Z,54.80
2018-06-13T17:13:03.166Z,55.30
2018-06-13T17:15:33.091Z,56.10
2018-06-13T17:18:00.915Z,56.20
2018-06-13T17:20:28.703Z,56.20
2018-06-13T17:22:56.500Z,56.80
2018-06-13T17:25:24.557Z,56.40
2018-06-13T17:27:52.479Z,57.10
2018-06-13T17:30:20.461Z,59.60
2018-06-13T17:32:49.565Z,60.90
2018-06-13T17:35:17.590Z,62.30
2018-06-13T17:37:45.744Z,63.30
2018-06-13T17:40:13.783Z,63.90
2018-06-13T17:42:41.689Z,63.90
2018-06-13T17:45:09.552Z,64.00
2018-06-13T17:47:38.630Z,63.50
2018-06-13T17:50:06.696Z,64.90
2018-06-13T17:52:34.618Z,65.00
2018-06-13T17:55:02.596Z,65.10
2018-06-13T17:59:58.425Z,65.20
2018-06-13T18:02:26.620Z,66.50
2018-06-13T18:04:54.467Z,66.70
2018-06-13T18:07:22.415Z,65.80
2018-06-13T18:09:50.241Z,66.40
2018-06-13T18:12:18.138Z,65.00
2018-06-13T18:14:45.966Z,66.40
2018-06-13T18:17:13.789Z,66.50
2018-06-13T18:19:41.701Z,67.20
2018-06-13T18:24:37.236Z,66.50
2018-06-13T18:29:33.623Z,66.20
2018-06-13T18:32:01.389Z,66.40
2018-06-13T18:34:29.222Z,67.60
2018-06-13T18:36:57.133Z,68.00
2018-06-13T18:39:24.976Z,68.60
2018-06-13T18:41:52.914Z,68.60
2018-06-13T18:44:20.731Z,69.00
2018-06-13T18:46:48.539Z,69.40
2018-06-13T18:51:44.272Z,70.30
2018-06-13T18:54:13.278Z,71.10
2018-06-13T18:56:41.243Z,70.70
2018-06-13T18:59:09.104Z,70.70
2018-06-13T19:01:36.964Z,72.40
2018-06-13T19:04:04.893Z,73.00
2018-06-13T19:06:32.666Z,72.80
2018-06-13T19:09:00.981Z,73.80
2018-06-13T19:11:28.747Z,76.00
2018-06-13T19:13:56.619Z,76.70
2018-06-13T19:16:24.555Z,75.60
2018-06-13T19:18:52.473Z,75.30
2018-06-13T19:21:20.302Z,78.90
2018-06-13T19:23:48.193Z,78.20
2018-06-13T19:26:16.033Z,77.40
2018-06-13T19:28:44.318Z,77.60
2018-06-13T19:33:40.092Z,78.40
2018-06-13T19:36:07.898Z,79.40
2018-06-13T19:38:35.720Z,79.40
2018-06-13T19:41:04.545Z,80.00
2018-06-13T19:43:40.562Z,81.30
2018-06-13T19:46:09.003Z,81.00
2018-06-13T19:51:10.641Z,83.30
2018-06-13T19:53:45.271Z,83.10
2018-06-13T19:56:14.671Z,81.50
2018-06-13T19:58:42.547Z,84.80
2018-06-13T20:01:10.414Z,84.10
2018-06-13T20:03:43.991Z,86.00
2018-06-13T20:06:11.844Z,84.40
2018-06-13T20:08:39.698Z,85.80
2018-06-13T20:11:07.672Z,85.70
2018-06-13T20:13:41.221Z,87.00
2018-06-13T20:18:48.401Z,90.90
2018-06-13T20:21:16.204Z,91.20
2018-06-13T20:23:44.406Z,91.90
2018-06-13T20:26:18.153Z,90.00
2018-06-13T20:28:51.732Z,89.30
2018-06-13T20:31:24.723Z,88.10
2018-06-13T20:33:52.720Z,89.80
2018-06-13T20:36:20.673Z,90.40
2018-06-13T20:38:48.611Z,90.20
2018-06-13T20:41:16.921Z,89.80
2018-06-13T20:43:44.948Z,89.70
2018-06-13T20:46:13.214Z,90.00
2018-06-13T20:48:41.151Z,90.00
2018-06-13T20:56:09.627Z,92.20
2018-06-13T20:58:37.450Z,92.50
2018-06-13T21:01:05.711Z,92.20
2018-06-13T21:03:33.593Z,92.30
2018-06-13T21:06:01.835Z,91.40
2018-06-13T21:08:29.601Z,92.10
2018-06-13T21:10:57.377Z,91.40
2018-06-13T21:16:47.152Z,91.60
2018-06-13T21:19:43.644Z,92.20
2018-06-13T21:22:11.825Z,91.50
2018-06-13T21:24:39.610Z,92.40
2018-06-13T21:27:07.408Z,91.10
2018-06-13T21:29:35.278Z,93.60
2018-06-13T21:32:03.128Z,93.40
2018-06-13T21:34:31.154Z,92.10
2018-06-13T21:36:59.174Z,91.20
2018-06-13T21:39:38.365Z,90.70
2018-06-13T21:42:07.168Z,92.40
2018-06-13T21:48:10.141Z,94.90
2018-06-13T21:51:03.178Z,94.80
2018-06-13T21:53:31.016Z,94.00
2018-06-13T21:55:58.854Z,91.80
2018-06-13T21:58:26.679Z,93.10
2018-06-13T22:00:54.431Z,93.20
2018-06-13T22:03:22.222Z,91.40
2018-06-13T22:05:50.303Z,91.30
2018-06-13T22:08:19.426Z,93.10
2018-06-13T22:10:47.213Z,92.90
2018-06-13T22:13:15.007Z,93.90
2018-06-13T22:15:42.782Z,94.70
2018-06-13T22:18:10.518Z,94.60
2018-06-13T22:20:38.234Z,93.90
2018-06-13T22:23:06.307Z,93.70
2018-06-13T22:25:34.593Z,93.60
2018-06-13T22:28:02.464Z,94.40
2018-06-13T22:30:30.318Z,94.70
2018-06-13T22:32:58.110Z,95.10
2018-06-13T22:35:27.191Z,95.40
2018-06-13T22:37:55.002Z,95.80
2018-06-13T22:40:22.961Z,95.70
2018-06-13T22:42:50.967Z,95.20
2018-06-13T22:47:44.095Z,95.40
2018-06-13T22:50:18.106Z,95.00
2018-06-13T22:52:45.946Z,95.20
2018-06-13T22:58:48.951Z,96.10
2018-06-13T23:01:16.697Z,95.30
2018-06-13T23:04:10.530Z,95.20
2018-06-13T23:06:38.294Z,94.80
2018-06-13T23:09:09.465Z,95.10
2018-06-13T23:11:37.405Z,94.00
2018-06-13T23:14:07.252Z,95.00
2018-06-13T23:16:36.208Z,95.10
2018-06-13T23:19:04.120Z,95.60
2018-06-13T23:21:37.977Z,95.30
2018-06-13T23:24:05.823Z,95.20
2018-06-13T23:27:22.180Z,94.30
2018-06-13T23:29:50.086Z,94.70
2018-06-13T23:32:17.887Z,93.40
2018-06-13T23:35:18.675Z,93.30
2018-06-13T23:37:46.537Z,93.20
2018-06-13T23:40:16.684Z,93.80
2018-06-13T23:42:44.570Z,94.00
2018-06-13T23:45:13.455Z,94.30
2018-06-13T23:47:55.045Z,93.70
2018-06-13T23:50:22.998Z,93.80
